Terminal Aerodrome Forecast
Issued by NWS

Home | Current Version | Previous Version | Text Only | Print | Product List | Glossary On
Versions: 1 2 3 4 5 6 7 8 9 10 11 12 13 14 15 16 17
000
FTUS43 KILX 290500
TAFBMI
TAF
KBMI 290528Z 2906/3006 00000KT P6SM SCT250
     FM291500 06006KT P6SM SCT100
     FM300200 04008KT P6SM -SN BKN015=

USA.gov is the U.S. government's official web portal to all federal, state and local government web resources and services.